Time;durP1;ratioP1;P1;durP2;ratioP2;P2;SDS_P1;SDS_P2;PMS_P1;PMS_P2;Temp;Humidity;BMP_temperature;BMP_pressure;BME280_temperature;BME280_humidity;BME280_pressure;Samples;Min_cycle;Max_cycle;Signal;HPM_P1;HPM_P2
2021/08/26 00:00:31;;;;;;;13.73;12.43;;;16.80;99.90;;;;;;4998698;28;20444;-89
2021/08/26 00:06:27;;;;;;;13.43;12.03;;;16.80;99.90;;;;;;5000653;28;20413;-91
2021/08/26 00:09:22;;;;;;;11.47;10.37;;;17.20;99.90;;;;;;4950880;28;20492;-90
2021/08/26 00:11:55;;;;;;;11.80;10.63;;;16.80;99.90;;;;;;4981445;28;20445;-91
2021/08/26 00:14:38;;;;;;;12.10;11.10;;;16.80;99.90;;;;;;4978997;28;20449;-91
2021/08/26 00:20:15;;;;;;;11.77;10.57;;;16.50;99.90;;;;;;4997260;28;20428;-90
2021/08/26 00:22:52;;;;;;;;;;;;;;;;;;;;;
2021/08/26 00:25:26;;;;;;;10.60;9.50;;;16.60;99.90;;;;;;4979430;28;20177;-89
2021/08/26 00:28:16;;;;;;;11.10;10.00;;;16.60;99.90;;;;;;4996344;28;20484;-90
2021/08/26 00:31:27;;;;;;;13.43;11.77;;;17.80;99.90;;;;;;4978860;28;20453;-90
2021/08/26 00:34:01;;;;;;;10.47;9.53;;;16.90;99.90;;;;;;4922404;29;20457;-91
2021/08/26 00:36:27;;;;;;;12.67;11.37;;;16.80;99.90;;;;;;5082120;23;21015;-91
2021/08/26 00:38:52;;;;;;;15.67;13.97;;;17.30;99.90;;;;;;4990649;28;20491;-89
2021/08/26 00:44:00;;;;;;;15.87;13.40;;;16.50;99.90;;;;;;5486828;23;20236;-90
2021/08/26 00:46:26;;;;;;;14.03;12.63;;;18.50;99.90;;;;;;4980377;28;20437;-90
2021/08/26 00:48:52;;;;;;;15.23;13.10;;;16.90;99.90;;;;;;4998625;28;20518;-90
2021/08/26 00:51:18;;;;;;;19.77;15.20;;;16.80;99.90;;;;;;4999146;28;20176;-89
2021/08/26 00:53:59;;;;;;;;;;;;;;;;;;;;;
2021/08/26 00:59:32;;;;;;;15.27;13.67;;;16.40;99.90;;;;;;5589542;23;20459;-90
2021/08/26 01:19:13;;;;;;;14.40;13.00;;;16.40;99.90;;;;;;5145606;23;20472;-89
2021/08/26 01:22:11;;;;;;;10.20;9.20;;;17.70;99.90;;;;;;4996204;28;20511;-90
2021/08/26 01:25:29;;;;;;;8.77;7.90;;;16.10;99.90;;;;;;4971287;28;20423;-88
2021/08/26 01:28:07;;;;;;;5.70;5.30;;;15.70;99.90;;;;;;5000269;28;20412;-89
2021/08/26 01:30:43;;;;;;;5.60;5.10;;;16.00;99.90;;;;;;5000488;28;20412;-91
2021/08/26 01:44:31;;;;;;;6.53;3.57;;;15.70;99.90;;;;;;5383517;23;21305;-91
2021/08/26 01:47:03;;;;;;;4.20;3.60;;;18.00;99.90;;;;;;4981927;28;20425;-89
2021/08/26 01:49:41;;;;;;;3.50;3.40;;;16.50;99.90;;;;;;4999161;28;20413;-89
2021/08/26 01:52:58;;;;;;;4.90;3.50;;;15.70;99.90;;;;;;4982388;28;20433;-91
2021/08/26 01:56:03;;;;;;;3.73;3.60;;;15.90;99.90;;;;;;4996848;28;20417;-89
2021/08/26 01:58:46;;;;;;;3.00;2.80;;;16.00;99.90;;;;;;4960156;28;20420;-90
2021/08/26 02:02:04;;;;;;;2.97;2.87;;;17.60;99.90;;;;;;4975682;28;20425;-90
2021/08/26 02:04:44;;;;;;;2.53;2.43;;;16.40;99.90;;;;;;4981281;28;20441;-90
2021/08/26 02:07:38;;;;;;;4.33;2.90;;;16.20;99.90;;;;;;4981931;28;20440;-90
2021/08/26 02:10:10;;;;;;;2.83;2.83;;;16.30;99.90;;;;;;4977464;28;20422;-88
2021/08/26 02:13:08;;;;;;;2.50;2.37;;;15.80;99.90;;;;;;4981104;28;20430;-91
2021/08/26 02:15:48;;;;;;;3.10;2.90;;;15.90;99.90;;;;;;4997609;28;20441;-90
2021/08/26 02:18:15;;;;;;;2.50;2.30;;;16.00;99.90;;;;;;4979871;28;20436;-89
2021/08/26 02:20:57;;;;;;;4.13;2.57;;;17.40;99.90;;;;;;4997016;28;20429;-89
2021/08/26 02:24:06;;;;;;;2.83;2.73;;;16.30;99.90;;;;;;4985660;28;20417;-88
2021/08/26 02:27:08;;;;;;;3.17;2.57;;;16.50;99.90;;;;;;4981888;28;20496;-89
2021/08/26 02:29:55;;;;;;;3.60;3.40;;;16.10;99.90;;;;;;4977988;28;20425;-89
2021/08/26 02:32:52;;;;;;;3.20;3.10;;;14.90;99.90;;;;;;4965197;28;20429;-89
2021/08/26 02:36:26;;;;;;;;;;;;;;;;;;;;;
2021/08/26 02:39:23;;;;;;;5.43;3.07;;;16.00;99.90;;;;;;5741464;23;20448;-87
2021/08/26 02:41:57;;;;;;;3.10;2.90;;;16.20;99.90;;;;;;4999878;28;20465;-90
2021/08/26 02:44:37;;;;;;;3.03;2.83;;;15.90;99.90;;;;;;4981457;28;20417;-89
2021/08/26 02:47:26;;;;;;;3.10;2.90;;;14.80;99.90;;;;;;4965854;28;20420;-89
2021/08/26 02:49:55;;;;;;;5.83;2.80;;;16.30;99.90;;;;;;4981987;28;20448;-87
2021/08/26 03:11:08;;;;;;;3.90;2.90;;;16.00;99.90;;;;;;5884381;23;20661;-88
2021/08/26 03:13:34;;;;;;;3.10;2.90;;;16.60;99.90;;;;;;4979004;28;20513;-88
2021/08/26 03:16:15;;;;;;;3.27;2.97;;;16.20;99.90;;;;;;4979262;28;20429;-88
2021/08/26 03:19:22;;;;;;;6.53;3.07;;;17.80;99.90;;;;;;4978815;28;20174;-89
2021/08/26 03:22:11;;;;;;;3.53;3.23;;;15.90;99.90;;;;;;4979034;28;20391;-89
2021/08/26 03:25:11;;;;;;;4.73;4.23;;;16.50;99.90;;;;;;4943351;29;20445;-90
2021/08/26 03:27:54;;;;;;;10.40;3.70;;;15.70;99.60;;;;;;4961449;28;20438;-89
2021/08/26 03:33:00;;;;;;;10.20;3.20;;;15.70;99.90;;;;;;5653405;23;20468;-90
2021/08/26 03:36:05;;;;;;;9.67;3.80;;;16.30;99.90;;;;;;4983459;28;20435;-89
2021/08/26 03:39:09;;;;;;;3.83;3.43;;;15.30;98.60;;;;;;4999708;28;20976;-89
2021/08/26 03:45:17;;;;;;;7.67;3.97;;;17.80;99.90;;;;;;5428065;23;20539;-90
2021/08/26 03:47:42;;;;;;;4.10;3.70;;;15.50;99.60;;;;;;4965858;28;20486;-91
2021/08/26 03:52:51;;;;;;;9.60;3.47;;;15.70;98.30;;;;;;5493629;23;20260;-89
2021/08/26 04:03:32;;;;;;;8.00;3.50;;;15.60;97.80;;;;;;4979200;28;20450;-90
2021/08/26 04:09:47;;;;;;;;;;;;;;;;;;;;;
2021/08/26 04:12:35;;;;;;;6.37;4.00;;;17.30;98.70;;;;;;4949718;28;20474;-90
2021/08/26 04:15:12;;;;;;;5.97;4.50;;;15.20;96.90;;;;;;4979837;28;20450;-90
2021/08/26 04:18:13;;;;;;;3.40;3.10;;;15.10;96.70;;;;;;5419513;23;20468;-92
2021/08/26 04:36:36;;;;;;;4.37;3.50;;;15.50;98.10;;;;;;5581746;23;20476;-88
2021/08/26 04:55:07;;;;;;;7.10;3.37;;;15.40;95.30;;;;;;5682992;23;21331;-91
2021/08/26 05:00:14;;;;;;;7.57;3.53;;;15.40;95.10;;;;;;5120939;23;20538;-91
2021/08/26 05:03:05;;;;;;;6.10;3.40;;;15.90;96.20;;;;;;4981347;28;20445;-91
2021/08/26 05:06:32;;;;;;;4.57;3.33;;;15.20;94.00;;;;;;5009358;28;20458;-91
2021/08/26 05:09:12;;;;;;;3.53;3.00;;;16.00;94.30;;;;;;5014609;28;20412;-90
2021/08/26 05:11:39;;;;;;;3.13;2.93;;;15.50;94.70;;;;;;5011574;28;20428;-88
2021/08/26 05:14:07;;;;;;;8.23;2.80;;;17.10;96.10;;;;;;4998632;28;20486;-89
2021/08/26 05:19:13;;;;;;;9.20;3.63;;;15.50;93.60;;;;;;4805118;23;10001297;-89
2021/08/26 05:21:48;;;;;;;3.33;3.07;;;16.00;95.50;;;;;;5214519;23;20176;-87
2021/08/26 05:26:49;;;;;;;9.67;4.00;;;15.60;92.70;;;;;;5092699;23;20492;-88
2021/08/26 05:29:15;;;;;;;3.93;3.10;;;15.20;92.50;;;;;;4985664;28;20947;-89
2021/08/26 05:31:43;;;;;;;9.40;3.60;;;16.90;93.40;;;;;;4980141;28;20433;-89
2021/08/26 05:34:11;;;;;;;10.27;5.20;;;17.50;94.60;;;;;;4966678;28;20216;-87
2021/08/26 05:36:47;;;;;;;;;;;;;;;;;;;;;
2021/08/26 05:39:25;;;;;;;5.30;3.63;;;15.70;92.20;;;;;;4990043;28;20445;-91
2021/08/26 05:41:56;;;;;;;6.43;4.67;;;15.80;91.60;;;;;;5091289;23;20488;-86
2021/08/26 05:44:31;;;;;;;6.67;3.30;;;17.10;92.80;;;;;;4968878;28;20476;-85
2021/08/26 05:47:03;;;;;;;6.63;4.37;;;15.90;92.10;;;;;;4984702;28;20533;-88
2021/08/26 05:49:35;;;;;;;7.07;4.50;;;15.80;92.90;;;;;;4966102;28;20425;-89
2021/08/26 05:52:01;;;;;;;6.00;3.97;;;16.70;92.20;;;;;;4970417;28;20453;-85
2021/08/26 05:54:41;;;;;;;5.90;3.30;;;16.10;93.00;;;;;;4965384;28;20502;-90
2021/08/26 05:59:48;;;;;;;15.43;5.77;;;15.40;90.90;;;;;;5025126;23;20512;-87
2021/08/26 06:02:14;;;;;;;34.20;9.87;;;14.70;89.80;;;;;;5044794;23;20548;-89
2021/08/26 06:04:42;;;;;;;6.00;5.23;;;15.80;90.40;;;;;;4985611;28;20225;-88
2021/08/26 06:07:25;;;;;;;;;;;;;;;;;;;;;
2021/08/26 06:09:52;;;;;;;4.63;3.33;;;18.30;92.20;;;;;;5167868;23;21027;-87
2021/08/26 06:12:21;;;;;;;5.50;2.97;;;17.40;92.20;;;;;;5006800;28;20936;-90
2021/08/26 06:15:43;;;;;;;5.93;2.70;;;16.40;91.60;;;;;;4978307;28;20477;-88
2021/08/26 06:20:47;;;;;;;6.50;4.47;;;16.50;87.10;;;;;;5086773;23;20484;-90
2021/08/26 06:23:20;;;;;;;6.60;3.83;;;16.70;87.80;;;;;;5087287;23;20892;-91
2021/08/26 06:28:34;;;;;;;;;;;;;;;;;;;;;
2021/08/26 06:34:01;;;;;;;10.70;3.30;;;16.90;86.40;;;;;;5543594;23;20498;-91
2021/08/26 06:47:12;;;;;;;7.40;4.00;;;17.20;81.30;;;;;;5022180;23;20509;-91
2021/08/26 06:49:40;;;;;;;5.27;3.53;;;17.30;83.20;;;;;;5350559;23;20553;-91
2021/08/26 06:52:15;;;;;;;8.80;3.53;;;16.70;86.90;;;;;;5198094;23;20824;-87
2021/08/26 06:57:37;;;;;;;8.47;3.60;;;17.10;83.00;;;;;;4864023;23;20769;31
2021/08/26 07:03:00;;;;;;;5.03;3.90;;;17.10;84.40;;;;;;5137879;23;20518;-89
2021/08/26 07:08:03;;;;;;;4.03;3.00;;;16.90;87.50;;;;;;5607174;23;20717;-87
2021/08/26 07:10:34;;;;;;;8.43;3.83;;;16.90;90.70;;;;;;5269954;23;20500;-93
2021/08/26 07:13:00;;;;;;;4.77;3.57;;;17.70;91.30;;;;;;5037493;23;20474;-87
2021/08/26 07:15:26;;;;;;;3.57;3.27;;;17.20;90.40;;;;;;4964892;28;20440;-89
2021/08/26 07:18:18;;;;;;;5.53;3.23;;;17.20;90.00;;;;;;4953702;29;20658;-87
2021/08/26 07:20:45;;;;;;;3.77;3.40;;;17.60;86.50;;;;;;4951211;29;20430;-91
2021/08/26 07:23:19;;;;;;;7.90;3.17;;;19.00;85.20;;;;;;4969721;28;20418;-88
2021/08/26 07:25:50;;;;;;;5.23;3.17;;;18.20;85.00;;;;;;4970094;29;20465;-88
2021/08/26 07:34:22;;;;;;;9.43;4.97;;;18.30;80.60;;;;;;4956049;28;20856;-90
2021/08/26 07:37:07;;;;;;;7.17;4.20;;;18.40;85.90;;;;;;5106968;23;20481;-91
2021/08/26 07:39:41;;;;;;;5.20;4.00;;;18.40;80.90;;;;;;4954377;29;20462;-90
2021/08/26 07:42:09;;;;;;;5.43;3.43;;;18.40;82.10;;;;;;4973809;29;20527;-91
2021/08/26 07:44:34;;;;;;;6.10;4.10;;;18.20;82.40;;;;;;4970820;29;20516;-84
2021/08/26 07:47:00;;;;;;;5.13;4.63;;;19.40;88.50;;;;;;4954372;29;20787;-90
2021/08/26 07:49:35;;;;;;;7.80;5.20;;;19.50;90.00;;;;;;4934390;29;20183;-86
2021/08/26 07:52:03;;;;;;;9.87;5.07;;;17.90;86.60;;;;;;4931513;29;20559;-93
2021/08/26 07:54:31;;;;;;;5.43;5.07;;;18.10;90.20;;;;;;4937601;29;20817;-92
2021/08/26 07:56:57;;;;;;;5.00;4.50;;;18.30;91.50;;;;;;4936616;29;20839;-87
2021/08/26 07:59:24;;;;;;;6.67;4.70;;;17.40;93.30;;;;;;4931483;29;20419;-93
2021/08/26 08:01:57;;;;;;;4.80;4.40;;;18.10;93.30;;;;;;4933155;29;20427;-89
2021/08/26 08:04:22;;;;;;;10.60;4.87;;;18.50;95.30;;;;;;4949702;29;20811;-91
2021/08/26 08:06:54;;;;;;;4.23;3.73;;;19.00;96.50;;;;;;4933784;29;20458;-92
2021/08/26 08:09:33;;;;;;;7.33;4.00;;;18.80;94.70;;;;;;4959144;29;20198;-91
2021/08/26 08:12:26;;;;;;;;;;;;;;;;;;;;;
2021/08/26 08:15:26;;;;;;;5.23;3.80;;;17.20;94.50;;;;;;4976076;28;20496;-93
2021/08/26 08:17:52;;;;;;;5.70;4.10;;;17.80;94.20;;;;;;4613468;29;10000469;-88
2021/08/26 08:20:18;;;;;;;4.83;4.30;;;19.10;94.60;;;;;;4929168;29;20251;-89
2021/08/26 08:22:48;;;;;;;4.53;3.47;;;19.00;91.30;;;;;;4927238;29;20203;-90
2021/08/26 08:25:19;;;;;;;4.33;3.97;;;19.60;90.30;;;;;;4937682;29;20412;-83
2021/08/26 08:27:44;;;;;;;8.53;5.70;;;19.70;87.30;;;;;;4941011;29;20419;-89
2021/08/26 08:30:21;;;;;;;6.60;5.17;;;19.60;86.80;;;;;;4939576;29;20427;-88
2021/08/26 08:32:49;;;;;;;5.90;5.30;;;18.90;86.40;;;;;;4910406;29;20195;-85
2021/08/26 08:35:15;;;;;;;11.20;6.97;;;18.50;83.10;;;;;;4939173;29;20574;-89
2021/08/26 08:37:41;;;;;;;9.20;6.50;;;18.50;87.60;;;;;;4625634;28;10000113;-87
2021/08/26 08:40:07;;;;;;;4.72;4.13;;;18.90;85.70;;;;;;4632495;28;10000985;-88
2021/08/26 08:42:33;;;;;;;5.07;4.63;;;18.80;84.60;;;;;;4632846;28;10000584;-87
2021/08/26 08:45:00;;;;;;;5.53;4.75;;;17.50;84.30;;;;;;4628215;28;9999674;-89
2021/08/26 08:47:29;;;;;;;7.13;4.47;;;17.70;88.60;;;;;;4598824;28;9999709;-88
2021/08/26 08:49:55;;;;;;;10.77;8.03;;;16.50;87.10;;;;;;4974889;28;20856;-85
2021/08/26 08:52:20;;;;;;;4.30;3.33;;;17.90;90.60;;;;;;4961636;28;20425;-88
2021/08/26 08:54:46;;;;;;;3.10;2.93;;;17.90;90.30;;;;;;4968938;28;21001;-87
2021/08/26 08:57:12;;;;;;;4.20;3.20;;;18.10;89.70;;;;;;4979545;28;20174;-89
2021/08/26 08:59:41;;;;;;;4.60;3.10;;;18.80;90.40;;;;;;4979662;28;20169;-86
2021/08/26 09:02:07;;;;;;;2.87;2.67;;;18.30;89.10;;;;;;4964065;28;20437;-87
2021/08/26 09:04:56;;;;;;;3.03;2.77;;;18.40;90.00;;;;;;4961433;28;20840;-87
2021/08/26 09:07:31;;;;;;;3.17;2.87;;;20.10;84.50;;;;;;4972983;28;20280;-87
2021/08/26 09:09:58;;;;;;;3.67;3.50;;;19.70;81.30;;;;;;4957468;29;20437;-87
2021/08/26 09:12:52;;;;;;;;;;;;;;;;;;;;;
2021/08/26 09:15:22;;;;;;;2.33;2.23;;;22.70;64.80;;;;;;4962247;29;20544;-88
2021/08/26 09:17:49;;;;;;;1.40;1.40;;;24.30;58.80;;;;;;4959959;29;20761;-90
2021/08/26 09:20:18;;;;;;;2.13;1.93;;;27.90;56.00;;;;;;4959290;29;20422;-88
2021/08/26 09:22:44;;;;;;;1.97;1.87;;;26.50;51.60;;;;;;4960814;29;20419;-91
2021/08/26 09:25:12;;;;;;;1.90;1.80;;;28.70;51.10;;;;;;4943691;29;20457;-88
2021/08/26 09:27:44;;;;;;;1.90;1.87;;;28.80;52.00;;;;;;4943259;29;20552;-89
2021/08/26 09:30:19;;;;;;;4.20;2.50;;;26.50;51.10;;;;;;4959869;28;20422;-88
2021/08/26 09:32:59;;;;;;;2.33;2.10;;;26.70;51.80;;;;;;4960675;29;20420;-86
2021/08/26 09:35:31;;;;;;;3.67;3.40;;;26.30;49.90;;;;;;4943469;29;20521;-87
2021/08/26 09:38:00;;;;;;;2.80;2.60;;;26.20;50.10;;;;;;4960581;28;20442;-87
2021/08/26 09:40:28;;;;;;;3.17;3.00;;;25.60;49.80;;;;;;4625353;28;10000029;-88
2021/08/26 09:43:06;;;;;;;2.90;2.70;;;25.50;51.70;;;;;;4958585;29;20186;-89
2021/08/26 09:45:36;;;;;;;5.67;3.83;;;24.20;52.10;;;;;;4970515;28;20470;-87
2021/08/26 09:48:14;;;;;;;8.07;3.30;;;23.60;54.10;;;;;;4617787;28;9999789;-87
2021/08/26 09:50:49;;;;;;;6.23;4.80;;;22.90;54.70;;;;;;4980871;28;20196;-86
2021/08/26 09:53:23;;;;;;;3.13;2.93;;;22.80;55.40;;;;;;4976719;28;20470;-89
2021/08/26 09:55:51;;;;;;;6.13;3.90;;;22.20;55.40;;;;;;4977532;28;20425;-88
2021/08/26 09:58:18;;;;;;;5.10;4.00;;;21.70;56.30;;;;;;4981426;28;20410;-87
2021/08/26 10:00:44;;;;;;;5.70;5.20;;;21.60;57.10;;;;;;4977705;28;20948;-87
2021/08/26 10:03:14;;;;;;;3.70;3.50;;;23.10;59.50;;;;;;4955873;28;21745;-89
2021/08/26 10:05:44;;;;;;;3.87;3.53;;;21.20;58.10;;;;;;4947047;28;20444;-88
2021/08/26 10:08:12;;;;;;;4.17;3.67;;;21.90;58.60;;;;;;4975340;28;20500;-87
2021/08/26 10:10:39;;;;;;;8.40;6.50;;;20.90;58.40;;;;;;4960251;28;20926;-88
2021/08/26 10:13:05;;;;;;;9.50;8.60;;;20.90;59.20;;;;;;4959316;28;20414;-89
2021/08/26 10:15:32;;;;;;;11.80;10.70;;;20.50;61.40;;;;;;4624959;28;10000372;-87
2021/08/26 10:17:58;;;;;;;10.50;9.60;;;21.70;63.90;;;;;;4959359;28;20178;-88
2021/08/26 10:20:24;;;;;;;14.70;10.50;;;20.30;64.40;;;;;;4977887;28;20517;-87
2021/08/26 10:22:51;;;;;;;11.20;10.23;;;21.70;68.50;;;;;;4960031;28;20516;-86
2021/08/26 10:25:20;;;;;;;6.90;6.10;;;21.40;68.70;;;;;;4962441;28;20178;-87
2021/08/26 10:27:49;;;;;;;6.53;5.47;;;21.10;77.60;;;;;;4976730;28;20421;-93
2021/08/26 10:30:33;;;;;;;7.30;5.77;;;20.20;73.30;;;;;;4959707;28;20930;-85
2021/08/26 10:33:14;;;;;;;8.63;6.53;;;17.70;75.10;;;;;;4978184;28;20428;-86
2021/08/26 10:35:58;;;;;;;6.73;4.63;;;19.00;75.80;;;;;;4960412;28;20795;-88
2021/08/26 10:38:33;;;;;;;5.73;4.63;;;18.90;74.90;;;;;;4976333;28;20410;-88
2021/08/26 10:41:18;;;;;;;8.93;5.47;;;18.80;76.00;;;;;;4976869;28;20421;-85
2021/08/26 10:44:10;;;;;;;8.43;6.30;;;20.70;79.40;;;;;;4978334;28;20413;-89
2021/08/26 10:46:54;;;;;;;11.53;7.93;;;19.10;79.20;;;;;;4960960;28;20422;-89
2021/08/26 10:49:24;;;;;;;8.43;7.47;;;19.20;79.10;;;;;;4984682;28;20425;-90
2021/08/26 10:51:53;;;;;;;8.53;7.93;;;19.10;78.90;;;;;;4984562;28;20405;-87
2021/08/26 10:54:32;;;;;;;8.17;7.43;;;21.20;82.20;;;;;;4965762;28;20500;-87
2021/08/26 10:57:24;;;;;;;10.03;7.20;;;20.20;81.40;;;;;;4982033;28;20409;-85
2021/08/26 10:59:51;;;;;;;11.82;8.50;;;19.20;78.60;;;;;;4596926;28;10000835;-90
2021/08/26 11:02:43;;;;;;;6.90;6.40;;;21.10;84.50;;;;;;4982602;28;20417;-88
2021/08/26 11:05:34;;;;;;;10.87;8.43;;;19.20;77.60;;;;;;4980509;28;20425;-90
2021/08/26 11:08:00;;;;;;;9.17;7.30;;;19.30;76.30;;;;;;4964293;28;20428;-89
2021/08/26 11:10:30;;;;;;;8.47;5.87;;;20.90;78.10;;;;;;4963085;28;20409;-89
2021/08/26 11:13:33;;;;;;;6.30;5.80;;;19.50;72.80;;;;;;4981045;28;20280;-86
2021/08/26 11:16:37;;;;;;;6.03;5.10;;;20.30;71.90;;;;;;4981867;28;20539;-86
2021/08/26 11:19:06;;;;;;;6.37;4.50;;;20.10;71.30;;;;;;4976759;28;20422;-86
2021/08/26 11:21:44;;;;;;;8.83;4.83;;;20.70;68.20;;;;;;4964620;29;20414;-89
2021/08/26 11:24:20;;;;;;;5.13;3.70;;;21.50;67.60;;;;;;4967546;29;20465;-89
2021/08/26 11:27:28;;;;;;;4.10;3.70;;;24.20;63.30;;;;;;4969840;29;20429;-91
2021/08/26 11:29:57;;;;;;;7.53;3.50;;;25.00;56.60;;;;;;4929059;29;20424;-88
2021/08/26 11:32:26;;;;;;;6.70;3.90;;;27.70;55.40;;;;;;4946638;29;20678;-87
2021/08/26 11:34:58;;;;;;;4.17;3.37;;;26.50;51.80;;;;;;4966104;29;20470;-90
2021/08/26 11:37:31;;;;;;;6.67;3.57;;;27.00;51.10;;;;;;4950465;29;20934;-88
2021/08/26 11:40:03;;;;;;;6.40;4.13;;;26.40;49.70;;;;;;4946467;29;20419;-87
2021/08/26 11:42:39;;;;;;;4.20;3.83;;;25.90;50.80;;;;;;4944749;29;20423;-84
2021/08/26 11:45:16;;;;;;;5.30;4.40;;;26.00;50.20;;;;;;4945069;29;20419;-90
2021/08/26 11:47:46;;;;;;;4.47;3.47;;;25.60;50.40;;;;;;4944650;29;20757;-92
2021/08/26 11:50:34;;;;;;;7.77;4.40;;;26.70;52.50;;;;;;4947938;29;20411;-89
2021/08/26 11:53:04;;;;;;;3.47;3.17;;;25.10;51.80;;;;;;4946124;29;20423;-91
2021/08/26 11:55:42;;;;;;;6.43;4.00;;;24.80;51.30;;;;;;4947163;29;20442;-91
2021/08/26 11:58:14;;;;;;;6.47;4.00;;;24.30;51.30;;;;;;4942109;29;20418;-90
2021/08/26 12:00:48;;;;;;;5.73;3.60;;;25.10;53.00;;;;;;4944810;29;20443;-91
2021/08/26 12:03:15;;;;;;;9.83;4.70;;;24.20;53.70;;;;;;4947361;29;20407;-90
2021/08/26 12:05:42;;;;;;;8.73;4.77;;;24.90;54.70;;;;;;4946859;29;20415;-91
2021/08/26 12:08:10;;;;;;;8.37;4.40;;;24.10;55.00;;;;;;4946990;29;20514;-89
2021/08/26 12:10:43;;;;;;;5.07;4.10;;;23.60;54.30;;;;;;4944518;29;20455;-87
2021/08/26 12:13:11;;;;;;;3.90;3.53;;;23.90;54.20;;;;;;4946527;29;20943;-88
2021/08/26 12:16:03;;;;;;;5.70;5.10;;;23.20;54.00;;;;;;4615508;29;10000219;-87
2021/08/26 12:18:30;;;;;;;5.93;5.30;;;23.20;55.40;;;;;;4931707;29;20642;-83
2021/08/26 12:21:06;;;;;;;7.23;6.60;;;24.30;56.40;;;;;;4958058;29;20430;-90
2021/08/26 12:23:40;;;;;;;6.97;6.27;;;24.80;55.30;;;;;;4932358;29;20426;-89
2021/08/26 12:26:19;;;;;;;6.17;5.67;;;22.90;55.50;;;;;;4943137;29;20490;-89
2021/08/26 12:28:59;;;;;;;6.77;4.97;;;23.70;55.40;;;;;;4958956;29;20427;-87
2021/08/26 12:31:29;;;;;;;7.93;4.50;;;24.00;55.60;;;;;;4943146;29;20454;-86
2021/08/26 12:33:59;;;;;;;6.57;4.40;;;23.00;54.60;;;;;;4960461;29;20568;-90
2021/08/26 12:36:27;;;;;;;4.57;4.10;;;22.90;55.00;;;;;;4959411;28;20466;-88
2021/08/26 12:39:03;;;;;;;;;;;;;;;;;;;;;
2021/08/26 12:41:29;;;;;;;7.83;4.43;;;24.70;57.70;;;;;;4958498;29;20514;-89
2021/08/26 12:43:58;;;;;;;5.03;4.73;;;23.40;57.00;;;;;;4940836;29;20488;-86
2021/08/26 12:46:31;;;;;;;4.73;4.33;;;24.10;55.50;;;;;;4943922;29;20176;-89
2021/08/26 12:49:11;;;;;;;5.70;4.50;;;23.40;54.50;;;;;;4944279;29;20419;-85
2021/08/26 12:51:54;;;;;;;7.73;6.97;;;23.60;53.70;;;;;;4942572;29;20539;-87
2021/08/26 12:54:28;;;;;;;5.67;5.13;;;25.40;54.90;;;;;;4927109;29;20486;-88
2021/08/26 12:57:15;;;;;;;5.93;5.10;;;23.80;53.50;;;;;;4924860;29;20431;-88
2021/08/26 12:59:44;;;;;;;4.57;3.70;;;24.20;53.30;;;;;;4942464;29;20902;-88
2021/08/26 13:02:18;;;;;;;20.57;18.97;;;24.50;52.40;;;;;;4944523;29;20422;-88
2021/08/26 13:05:02;;;;;;;6.57;6.27;;;25.30;53.10;;;;;;4943660;29;20434;-91
2021/08/26 13:07:28;;;;;;;6.00;5.50;;;25.20;51.90;;;;;;4944633;29;20443;-88
2021/08/26 13:09:55;;;;;;;6.90;6.40;;;25.10;51.80;;;;;;4945043;29;20430;-92
2021/08/26 13:12:25;;;;;;;7.60;6.00;;;25.40;51.30;;;;;;4946681;29;20175;-91
2021/08/26 13:14:58;;;;;;;5.67;5.17;;;26.10;51.90;;;;;;4946598;29;20455;-89
2021/08/26 13:17:28;;;;;;;8.00;5.43;;;28.00;51.10;;;;;;4965538;29;20406;-86
2021/08/26 13:20:09;;;;;;;;;;;;;;;;;;;;;
2021/08/26 13:22:39;;;;;;;6.00;4.23;;;27.10;50.00;;;;;;4966626;29;20494;-90
2021/08/26 13:25:15;;;;;;;3.50;3.30;;;27.40;48.20;;;;;;4947638;29;20850;-88
2021/08/26 13:27:46;;;;;;;5.40;3.90;;;28.60;46.20;;;;;;4966078;29;20521;-88
2021/08/26 13:30:19;;;;;;;5.33;4.13;;;28.00;45.30;;;;;;4966931;29;20897;-88
2021/08/26 13:32:44;;;;;;;3.67;3.37;;;28.30;45.00;;;;;;4945957;29;20784;-87
2021/08/26 13:35:11;;;;;;;3.77;3.03;;;27.80;46.60;;;;;;4943722;29;20474;-85
2021/08/26 13:37:41;;;;;;;4.43;3.77;;;26.90;45.20;;;;;;4962915;28;20225;-87
2021/08/26 13:40:09;;;;;;;7.57;4.03;;;26.50;46.10;;;;;;4980036;28;21025;-88
2021/08/26 13:42:45;;;;;;;3.33;3.13;;;27.50;45.70;;;;;;4964220;28;20440;-87
2021/08/26 13:45:11;;;;;;;4.73;3.00;;;28.60;45.30;;;;;;4978886;28;20475;-88
2021/08/26 13:47:38;;;;;;;5.80;3.60;;;29.60;43.80;;;;;;4963933;28;20935;-85
2021/08/26 13:50:10;;;;;;;3.40;2.97;;;30.60;44.30;;;;;;4981816;28;20414;-87
2021/08/26 13:52:38;;;;;;;5.77;3.17;;;29.50;41.50;;;;;;4969963;28;20425;-89
2021/08/26 13:55:06;;;;;;;5.60;5.20;;;30.20;44.90;;;;;;4961274;29;20475;-90
2021/08/26 13:57:32;;;;;;;2.40;2.20;;;30.30;42.70;;;;;;4963541;29;20511;-88
2021/08/26 13:59:58;;;;;;;3.40;3.20;;;29.80;42.30;;;;;;4961217;29;20426;-89
2021/08/26 14:02:23;;;;;;;2.90;2.80;;;30.50;43.80;;;;;;4961704;29;20225;-88
2021/08/26 14:04:49;;;;;;;5.90;3.67;;;30.40;43.40;;;;;;4944639;29;20223;-90
2021/08/26 14:07:22;;;;;;;3.70;3.20;;;30.80;43.60;;;;;;4945237;29;20182;-87
2021/08/26 14:09:53;;;;;;;5.20;3.60;;;29.70;45.10;;;;;;4977558;28;20185;-89
2021/08/26 14:12:42;;;;;;;4.27;3.57;;;27.30;45.30;;;;;;4952260;29;20417;-93
2021/08/26 14:15:08;;;;;;;3.87;3.67;;;28.90;46.90;;;;;;4948379;29;20552;-89
2021/08/26 14:17:33;;;;;;;4.23;3.10;;;26.10;45.50;;;;;;4962586;28;20468;-90
2021/08/26 14:19:59;;;;;;;3.23;2.60;;;25.80;46.60;;;;;;4962652;28;20433;-87
2021/08/26 14:22:24;;;;;;;3.57;3.30;;;28.20;45.60;;;;;;4963957;28;20201;-85
2021/08/26 14:24:50;;;;;;;2.73;2.57;;;26.50;44.50;;;;;;4981947;28;20170;-84
2021/08/26 14:27:26;;;;;;;4.03;2.70;;;28.40;44.80;;;;;;4985788;28;20166;-92
2021/08/26 14:29:59;;;;;;;2.73;2.53;;;28.20;43.70;;;;;;4967458;28;20181;-89
2021/08/26 14:32:26;;;;;;;3.10;2.87;;;29.50;43.80;;;;;;4986712;28;20468;-88
2021/08/26 14:34:52;;;;;;;3.13;2.93;;;28.30;42.50;;;;;;4966776;28;20469;-88
2021/08/26 14:37:26;;;;;;;4.30;3.53;;;28.00;43.60;;;;;;4986519;28;20452;-86
2021/08/26 14:39:52;;;;;;;4.03;3.40;;;27.40;44.20;;;;;;4971004;28;20481;-83
2021/08/26 14:42:18;;;;;;;3.67;2.90;;;26.40;45.10;;;;;;4989677;28;20421;-90
2021/08/26 14:44:44;;;;;;;3.43;3.10;;;25.80;46.20;;;;;;4974485;28;20202;-86
2021/08/26 14:47:11;;;;;;;4.00;3.27;;;25.10;46.60;;;;;;4988747;28;20310;-87
2021/08/26 14:49:40;;;;;;;3.07;2.93;;;24.40;46.40;;;;;;4975083;28;20436;-86
2021/08/26 14:52:06;;;;;;;4.10;3.80;;;23.80;48.10;;;;;;4989665;28;20437;-85
2021/08/26 14:54:32;;;;;;;3.23;2.50;;;23.50;49.10;;;;;;4990988;28;20457;-87
2021/08/26 14:56:58;;;;;;;3.80;3.37;;;24.40;49.20;;;;;;4986644;28;20485;-83
2021/08/26 14:59:24;;;;;;;3.20;2.90;;;23.00;50.10;;;;;;4969712;28;20426;-86
2021/08/26 15:01:49;;;;;;;5.13;3.20;;;22.70;49.70;;;;;;4966453;28;20586;-88
2021/08/26 15:04:15;;;;;;;3.30;3.10;;;22.80;49.80;;;;;;4965101;28;20178;-88
2021/08/26 15:06:41;;;;;;;5.23;3.87;;;23.00;52.10;;;;;;4965012;28;20171;-87
2021/08/26 15:09:07;;;;;;;4.77;4.27;;;22.80;53.00;;;;;;4604694;29;9999734;-87
2021/08/26 15:11:39;;;;;;;4.10;3.80;;;21.20;51.20;;;;;;4944310;29;20509;-88
2021/08/26 15:14:04;;;;;;;4.40;3.93;;;23.30;52.80;;;;;;4960512;29;20480;-86
2021/08/26 15:16:30;;;;;;;4.77;3.97;;;22.00;52.30;;;;;;4944233;29;20438;-88
2021/08/26 15:18:56;;;;;;;7.70;4.40;;;21.90;52.00;;;;;;4957898;29;20186;-85
2021/08/26 15:21:21;;;;;;;4.03;3.70;;;21.90;52.20;;;;;;4955093;29;20190;-85
2021/08/26 15:23:47;;;;;;;6.17;4.53;;;23.00;55.30;;;;;;4953002;29;20167;-86
2021/08/26 15:26:12;;;;;;;10.40;8.83;;;21.30;56.50;;;;;;4952966;29;20175;-85
2021/08/26 15:28:38;;;;;;;6.43;5.07;;;21.60;57.10;;;;;;4957388;28;20321;-84
2021/08/26 15:31:04;;;;;;;6.63;5.07;;;19.60;57.50;;;;;;4959397;29;20183;-85
2021/08/26 15:33:32;;;;;;;10.17;5.50;;;20.40;62.10;;;;;;4942390;29;20222;-88
2021/08/26 15:36:00;;;;;;;10.43;5.77;;;21.70;73.50;;;;;;4960551;29;20462;-87
2021/08/26 15:38:25;;;;;;;5.77;5.20;;;20.80;71.50;;;;;;4958079;29;20437;-87
2021/08/26 15:40:51;;;;;;;5.47;5.00;;;18.20;70.20;;;;;;4940029;29;20921;-87
2021/08/26 15:43:20;;;;;;;4.57;4.03;;;17.90;74.70;;;;;;4958109;29;20181;-84
2021/08/26 15:45:46;;;;;;;10.57;6.43;;;20.60;79.10;;;;;;4958362;29;20241;-88
2021/08/26 15:48:14;;;;;;;6.90;4.60;;;20.70;82.10;;;;;;4958691;29;20425;-87
2021/08/26 15:50:41;;;;;;;5.53;5.00;;;18.80;80.10;;;;;;4941890;29;20532;-86
2021/08/26 15:53:10;;;;;;;8.27;6.20;;;18.90;85.50;;;;;;4956975;29;20421;-83
2021/08/26 15:55:44;;;;;;;21.60;14.10;;;17.40;83.80;;;;;;4946181;29;20438;-90
2021/08/26 16:01:04;;;;;;;11.53;6.30;;;19.60;92.90;;;;;;4964337;29;20437;-86
2021/08/26 16:03:34;;;;;;;8.27;6.03;;;20.90;95.00;;;;;;4947498;29;20430;-88
2021/08/26 16:06:03;;;;;;;8.30;5.83;;;18.60;93.10;;;;;;4946014;29;20430;-91
2021/08/26 16:08:35;;;;;;;7.27;5.23;;;20.00;93.50;;;;;;4944132;29;20430;-89
2021/08/26 16:11:04;;;;;;;5.37;4.87;;;18.40;95.20;;;;;;4963194;29;20416;-88